Anaconda, Montana
Current Conditions -  °F | °C
As of 10:53 AM on Friday 28 Nov 2014 (Local Time) from KBTM Reporting Station
Overcast Overcast  
Wind Chill:   Ceiling: 4300
Heat Index:   Visibility: 10mi
Dew Point: -2°   Wind: 8mph
Humidity: 56%   Direction: 70°ENE
Pressure: 29.71"   Gusts: NA
Location:  46.13°N, 112.94°W
Report Text: KBTM 281753Z AUTO 07007KT 10SM OVC043 06/M02 A2971 RMK AO2 PK WND 19027/1727 SLP046 60000 T00611022 10078 20050 56011
Loading
Personal Weather Stations






























Interactive Weather Map New forecast layout! Learn more

10-Day Weather Forecast

Advertisements
Track Severe Weather on mobile